sensor_id;sensor_type;location;lat;lon;timestamp;P1;P2;P0
36453;PMS5003;22478;51.740;-1.314;2022-10-22T00:02:00;221;218;
36453;PMS5003;22478;51.740;-1.314;2022-10-22T00:04:27;221;220;
36453;PMS5003;22478;51.740;-1.314;2022-10-22T00:06:55;221;221;
36453;PMS5003;22478;51.740;-1.314;2022-10-22T00:09:22;227;225;
36453;PMS5003;22478;51.740;-1.314;2022-10-22T00:11:49;224;224;
36453;PMS5003;22478;51.740;-1.314;2022-10-22T00:14:16;220;219;
36453;PMS5003;22478;51.740;-1.314;2022-10-22T00:16:43;218;217;
36453;PMS5003;22478;51.740;-1.314;2022-10-22T00:19:10;221;217;
36453;PMS5003;22478;51.740;-1.314;2022-10-22T00:21:38;211;207;
36453;PMS5003;22478;51.740;-1.314;2022-10-22T00:24:05;218;217;
36453;PMS5003;22478;51.740;-1.314;2022-10-22T00:26:32;216;216;
36453;PMS5003;22478;51.740;-1.314;2022-10-22T00:29:00;191;189;
36453;PMS5003;22478;51.740;-1.314;2022-10-22T00:31:27;225;223;
36453;PMS5003;22478;51.740;-1.314;2022-10-22T00:33:54;208;206;
36453;PMS5003;22478;51.740;-1.314;2022-10-22T00:36:22;207;206;
36453;PMS5003;22478;51.740;-1.314;2022-10-22T00:38:49;213;213;
36453;PMS5003;22478;51.740;-1.314;2022-10-22T00:41:17;205;205;
36453;PMS5003;22478;51.740;-1.314;2022-10-22T00:43:52;192;192;
36453;PMS5003;22478;51.740;-1.314;2022-10-22T00:46:23;177;170;
36453;PMS5003;22478;51.740;-1.314;2022-10-22T00:48:50;182;177;
36453;PMS5003;22478;51.740;-1.314;2022-10-22T00:51:19;183;182;
36453;PMS5003;22478;51.740;-1.314;2022-10-22T00:53:49;176;173;
36453;PMS5003;22478;51.740;-1.314;2022-10-22T00:56:19;175;170;
36453;PMS5003;22478;51.740;-1.314;2022-10-22T00:58:48;176;174;
36453;PMS5003;22478;51.740;-1.314;2022-10-22T01:01:20;181;181;
36453;PMS5003;22478;51.740;-1.314;2022-10-22T01:03:50;188;187;
36453;PMS5003;22478;51.740;-1.314;2022-10-22T01:06:19;186;186;
36453;PMS5003;22478;51.740;-1.314;2022-10-22T01:08:52;188;188;
36453;PMS5003;22478;51.740;-1.314;2022-10-22T01:11:31;187;187;
36453;PMS5003;22478;51.740;-1.314;2022-10-22T01:14:10;181;175;
36453;PMS5003;22478;51.740;-1.314;2022-10-22T01:16:44;184;180;
36453;PMS5003;22478;51.740;-1.314;2022-10-22T01:19:28;181;181;
36453;PMS5003;22478;51.740;-1.314;2022-10-22T01:22:09;183;180;
36453;PMS5003;22478;51.740;-1.314;2022-10-22T01:24:46;169;166;
36453;PMS5003;22478;51.740;-1.314;2022-10-22T01:27:24;170;167;
36453;PMS5003;22478;51.740;-1.314;2022-10-22T01:29:59;181;180;
36453;PMS5003;22478;51.740;-1.314;2022-10-22T01:32:30;173;165;
36453;PMS5003;22478;51.740;-1.314;2022-10-22T01:35:03;168;155;
36453;PMS5003;22478;51.740;-1.314;2022-10-22T01:37:34;196;196;
36453;PMS5003;22478;51.740;-1.314;2022-10-22T01:40:06;221;221;
36453;PMS5003;22478;51.740;-1.314;2022-10-22T01:42:35;215;215;
36453;PMS5003;22478;51.740;-1.314;2022-10-22T01:45:08;212;212;
36453;PMS5003;22478;51.740;-1.314;2022-10-22T01:47:38;211;210;
36453;PMS5003;22478;51.740;-1.314;2022-10-22T01:50:22;205;204;
36453;PMS5003;22478;51.740;-1.314;2022-10-22T01:53:04;203;203;
36453;PMS5003;22478;51.740;-1.314;2022-10-22T01:55:42;221;215;
36453;PMS5003;22478;51.740;-1.314;2022-10-22T01:58:21;219;219;
36453;PMS5003;22478;51.740;-1.314;2022-10-22T02:00:58;194;193;
36453;PMS5003;22478;51.740;-1.314;2022-10-22T02:03:32;234;233;
36453;PMS5003;22478;51.740;-1.314;2022-10-22T02:06:07;230;229;
36453;PMS5003;22478;51.740;-1.314;2022-10-22T02:08:39;246;245;
36453;PMS5003;22478;51.740;-1.314;2022-10-22T02:11:08;227;227;
36453;PMS5003;22478;51.740;-1.314;2022-10-22T02:13:39;221;219;
36453;PMS5003;22478;51.740;-1.314;2022-10-22T02:16:10;222;219;
36453;PMS5003;22478;51.740;-1.314;2022-10-22T02:18:42;190;190;
36453;PMS5003;22478;51.740;-1.314;2022-10-22T02:21:12;197;197;
36453;PMS5003;22478;51.740;-1.314;2022-10-22T02:23:41;186;186;
36453;PMS5003;22478;51.740;-1.314;2022-10-22T02:26:12;178;177;
36453;PMS5003;22478;51.740;-1.314;2022-10-22T02:28:46;172;169;
36453;PMS5003;22478;51.740;-1.314;2022-10-22T02:31:22;196;194;
36453;PMS5003;22478;51.740;-1.314;2022-10-22T02:33:54;191;191;
36453;PMS5003;22478;51.740;-1.314;2022-10-22T02:36:24;181;178;
36453;PMS5003;22478;51.740;-1.314;2022-10-22T02:38:52;187;184;
36453;PMS5003;22478;51.740;-1.314;2022-10-22T02:41:21;186;185;
36453;PMS5003;22478;51.740;-1.314;2022-10-22T02:43:49;174;172;
36453;PMS5003;22478;51.740;-1.314;2022-10-22T02:46:19;191;191;
36453;PMS5003;22478;51.740;-1.314;2022-10-22T02:48:47;199;199;
36453;PMS5003;22478;51.740;-1.314;2022-10-22T02:51:14;208;208;
36453;PMS5003;22478;51.740;-1.314;2022-10-22T02:53:42;216;212;
36453;PMS5003;22478;51.740;-1.314;2022-10-22T02:56:09;246;245;
36453;PMS5003;22478;51.740;-1.314;2022-10-22T02:58:37;231;231;
36453;PMS5003;22478;51.740;-1.314;2022-10-22T03:01:04;216;216;
36453;PMS5003;22478;51.740;-1.314;2022-10-22T03:03:31;227;226;
36453;PMS5003;22478;51.740;-1.314;2022-10-22T03:05:59;216;216;
36453;PMS5003;22478;51.740;-1.314;2022-10-22T03:08:26;209;209;
36453;PMS5003;22478;51.740;-1.314;2022-10-22T03:10:54;193;193;
36453;PMS5003;22478;51.740;-1.314;2022-10-22T03:13:21;221;219;
36453;PMS5003;22478;51.740;-1.314;2022-10-22T03:15:48;205;205;
36453;PMS5003;22478;51.740;-1.314;2022-10-22T03:18:16;225;224;
36453;PMS5003;22478;51.740;-1.314;2022-10-22T03:20:43;231;229;
36453;PMS5003;22478;51.740;-1.314;2022-10-22T03:23:11;230;228;
36453;PMS5003;22478;51.740;-1.314;2022-10-22T03:25:41;220;220;
36453;PMS5003;22478;51.740;-1.314;2022-10-22T03:28:10;238;238;
36453;PMS5003;22478;51.740;-1.314;2022-10-22T03:30:40;224;224;
36453;PMS5003;22478;51.740;-1.314;2022-10-22T03:33:08;227;224;
36453;PMS5003;22478;51.740;-1.314;2022-10-22T03:35:37;237;237;
36453;PMS5003;22478;51.740;-1.314;2022-10-22T03:38:08;208;208;
36453;PMS5003;22478;51.740;-1.314;2022-10-22T03:40:36;215;214;
36453;PMS5003;22478;51.740;-1.314;2022-10-22T03:43:03;201;198;
36453;PMS5003;22478;51.740;-1.314;2022-10-22T03:45:31;193;193;
36453;PMS5003;22478;51.740;-1.314;2022-10-22T03:47:58;225;224;
36453;PMS5003;22478;51.740;-1.314;2022-10-22T03:50:26;223;220;
36453;PMS5003;22478;51.740;-1.314;2022-10-22T03:52:53;208;207;
36453;PMS5003;22478;51.740;-1.314;2022-10-22T03:55:21;211;211;
36453;PMS5003;22478;51.740;-1.314;2022-10-22T03:57:48;200;199;
36453;PMS5003;22478;51.740;-1.314;2022-10-22T04:00:16;212;211;
36453;PMS5003;22478;51.740;-1.314;2022-10-22T04:02:43;201;201;
36453;PMS5003;22478;51.740;-1.314;2022-10-22T04:05:10;192;191;
36453;PMS5003;22478;51.740;-1.314;2022-10-22T04:07:38;190;188;
36453;PMS5003;22478;51.740;-1.314;2022-10-22T04:10:05;204;204;
36453;PMS5003;22478;51.740;-1.314;2022-10-22T04:12:33;201;199;
36453;PMS5003;22478;51.740;-1.314;2022-10-22T04:15:00;198;193;
36453;PMS5003;22478;51.740;-1.314;2022-10-22T04:17:31;195;194;
36453;PMS5003;22478;51.740;-1.314;2022-10-22T04:19:59;203;202;
36453;PMS5003;22478;51.740;-1.314;2022-10-22T04:22:27;200;199;
36453;PMS5003;22478;51.740;-1.314;2022-10-22T04:24:54;197;196;
36453;PMS5003;22478;51.740;-1.314;2022-10-22T04:27:22;207;206;
36453;PMS5003;22478;51.740;-1.314;2022-10-22T04:29:49;207;207;
36453;PMS5003;22478;51.740;-1.314;2022-10-22T04:32:17;206;204;
36453;PMS5003;22478;51.740;-1.314;2022-10-22T04:34:44;216;213;
36453;PMS5003;22478;51.740;-1.314;2022-10-22T04:37:11;203;202;
36453;PMS5003;22478;51.740;-1.314;2022-10-22T04:39:38;209;209;
36453;PMS5003;22478;51.740;-1.314;2022-10-22T04:42:05;212;209;
36453;PMS5003;22478;51.740;-1.314;2022-10-22T04:44:33;213;212;
36453;PMS5003;22478;51.740;-1.314;2022-10-22T04:47:00;204;204;
36453;PMS5003;22478;51.740;-1.314;2022-10-22T04:49:27;210;208;
36453;PMS5003;22478;51.740;-1.314;2022-10-22T04:51:54;213;213;
36453;PMS5003;22478;51.740;-1.314;2022-10-22T04:54:21;213;213;
36453;PMS5003;22478;51.740;-1.314;2022-10-22T04:56:49;215;215;
36453;PMS5003;22478;51.740;-1.314;2022-10-22T04:59:16;207;206;
36453;PMS5003;22478;51.740;-1.314;2022-10-22T05:01:43;214;213;
36453;PMS5003;22478;51.740;-1.314;2022-10-22T05:04:10;231;231;
36453;PMS5003;22478;51.740;-1.314;2022-10-22T05:06:39;222;220;
36453;PMS5003;22478;51.740;-1.314;2022-10-22T05:09:07;213;213;
36453;PMS5003;22478;51.740;-1.314;2022-10-22T05:11:38;218;218;
36453;PMS5003;22478;51.740;-1.314;2022-10-22T05:14:07;209;208;
36453;PMS5003;22478;51.740;-1.314;2022-10-22T05:16:36;215;214;
36453;PMS5003;22478;51.740;-1.314;2022-10-22T05:19:03;215;215;
36453;PMS5003;22478;51.740;-1.314;2022-10-22T05:21:32;201;201;
36453;PMS5003;22478;51.740;-1.314;2022-10-22T05:23:59;222;222;
36453;PMS5003;22478;51.740;-1.314;2022-10-22T05:26:27;208;208;
36453;PMS5003;22478;51.740;-1.314;2022-10-22T05:28:54;231;231;
36453;PMS5003;22478;51.740;-1.314;2022-10-22T05:31:22;256;256;
36453;PMS5003;22478;51.740;-1.314;2022-10-22T05:33:49;227;227;
36453;PMS5003;22478;51.740;-1.314;2022-10-22T05:36:18;213;213;
36453;PMS5003;22478;51.740;-1.314;2022-10-22T05:38:47;227;224;
36453;PMS5003;22478;51.740;-1.314;2022-10-22T05:41:15;236;236;
36453;PMS5003;22478;51.740;-1.314;2022-10-22T05:43:45;228;228;
36453;PMS5003;22478;51.740;-1.314;2022-10-22T05:46:14;263;263;
36453;PMS5003;22478;51.740;-1.314;2022-10-22T05:48:43;228;228;
36453;PMS5003;22478;51.740;-1.314;2022-10-22T05:51:14;204;201;
36453;PMS5003;22478;51.740;-1.314;2022-10-22T05:53:42;223;223;
36453;PMS5003;22478;51.740;-1.314;2022-10-22T05:56:11;225;223;
36453;PMS5003;22478;51.740;-1.314;2022-10-22T05:58:40;218;218;
36453;PMS5003;22478;51.740;-1.314;2022-10-22T06:01:10;229;227;
36453;PMS5003;22478;51.740;-1.314;2022-10-22T06:03:38;211;211;
36453;PMS5003;22478;51.740;-1.314;2022-10-22T06:06:11;215;215;
36453;PMS5003;22478;51.740;-1.314;2022-10-22T06:08:44;269;266;
36453;PMS5003;22478;51.740;-1.314;2022-10-22T06:11:11;224;224;
36453;PMS5003;22478;51.740;-1.314;2022-10-22T06:13:38;239;239;
36453;PMS5003;22478;51.740;-1.314;2022-10-22T06:16:05;219;217;
36453;PMS5003;22478;51.740;-1.314;2022-10-22T06:18:33;201;201;
36453;PMS5003;22478;51.740;-1.314;2022-10-22T06:21:02;206;206;
36453;PMS5003;22478;51.740;-1.314;2022-10-22T06:23:31;229;229;
36453;PMS5003;22478;51.740;-1.314;2022-10-22T06:25:58;247;247;
36453;PMS5003;22478;51.740;-1.314;2022-10-22T06:28:26;206;205;
36453;PMS5003;22478;51.740;-1.314;2022-10-22T06:30:53;197;195;
36453;PMS5003;22478;51.740;-1.314;2022-10-22T06:33:22;213;212;
36453;PMS5003;22478;51.740;-1.314;2022-10-22T06:35:49;205;205;
36453;PMS5003;22478;51.740;-1.314;2022-10-22T06:38:17;240;238;
36453;PMS5003;22478;51.740;-1.314;2022-10-22T06:40:44;216;213;
36453;PMS5003;22478;51.740;-1.314;2022-10-22T06:43:11;232;232;
36453;PMS5003;22478;51.740;-1.314;2022-10-22T06:45:39;245;245;
36453;PMS5003;22478;51.740;-1.314;2022-10-22T06:48:07;228;227;
36453;PMS5003;22478;51.740;-1.314;2022-10-22T06:50:34;222;220;
36453;PMS5003;22478;51.740;-1.314;2022-10-22T06:53:01;213;212;
36453;PMS5003;22478;51.740;-1.314;2022-10-22T06:55:29;228;227;
36453;PMS5003;22478;51.740;-1.314;2022-10-22T06:57:56;213;212;
36453;PMS5003;22478;51.740;-1.314;2022-10-22T07:00:24;235;231;
36453;PMS5003;22478;51.740;-1.314;2022-10-22T07:02:51;250;248;
36453;PMS5003;22478;51.740;-1.314;2022-10-22T07:05:19;225;222;
36453;PMS5003;22478;51.740;-1.314;2022-10-22T07:07:47;241;241;
36453;PMS5003;22478;51.740;-1.314;2022-10-22T07:10:14;243;242;
36453;PMS5003;22478;51.740;-1.314;2022-10-22T07:12:41;244;243;
36453;PMS5003;22478;51.740;-1.314;2022-10-22T07:15:09;242;242;
36453;PMS5003;22478;51.740;-1.314;2022-10-22T07:17:36;247;244;
36453;PMS5003;22478;51.740;-1.314;2022-10-22T07:20:04;260;258;
36453;PMS5003;22478;51.740;-1.314;2022-10-22T07:22:32;258;256;
36453;PMS5003;22478;51.740;-1.314;2022-10-22T07:24:59;239;239;
36453;PMS5003;22478;51.740;-1.314;2022-10-22T07:27:26;240;239;
36453;PMS5003;22478;51.740;-1.314;2022-10-22T07:29:53;231;228;
36453;PMS5003;22478;51.740;-1.314;2022-10-22T07:32:20;251;249;
36453;PMS5003;22478;51.740;-1.314;2022-10-22T07:34:48;258;258;
36453;PMS5003;22478;51.740;-1.314;2022-10-22T07:37:15;236;235;
36453;PMS5003;22478;51.740;-1.314;2022-10-22T07:39:42;225;225;
36453;PMS5003;22478;51.740;-1.314;2022-10-22T07:42:09;233;232;
36453;PMS5003;22478;51.740;-1.314;2022-10-22T07:44:36;219;219;
36453;PMS5003;22478;51.740;-1.314;2022-10-22T07:47:04;240;238;
36453;PMS5003;22478;51.740;-1.314;2022-10-22T07:49:31;237;236;
36453;PMS5003;22478;51.740;-1.314;2022-10-22T07:51:58;232;231;
36453;PMS5003;22478;51.740;-1.314;2022-10-22T07:54:25;249;248;
36453;PMS5003;22478;51.740;-1.314;2022-10-22T07:56:53;229;228;
36453;PMS5003;22478;51.740;-1.314;2022-10-22T07:59:20;237;235;
36453;PMS5003;22478;51.740;-1.314;2022-10-22T08:01:47;217;212;
36453;PMS5003;22478;51.740;-1.314;2022-10-22T08:04:14;226;225;
36453;PMS5003;22478;51.740;-1.314;2022-10-22T08:06:41;234;234;
36453;PMS5003;22478;51.740;-1.314;2022-10-22T08:09:08;254;254;
36453;PMS5003;22478;51.740;-1.314;2022-10-22T08:11:35;233;233;
36453;PMS5003;22478;51.740;-1.314;2022-10-22T08:14:02;242;242;
36453;PMS5003;22478;51.740;-1.314;2022-10-22T08:16:29;232;232;
36453;PMS5003;22478;51.740;-1.314;2022-10-22T08:18:57;256;253;
36453;PMS5003;22478;51.740;-1.314;2022-10-22T08:21:24;257;257;
36453;PMS5003;22478;51.740;-1.314;2022-10-22T08:23:52;259;259;
36453;PMS5003;22478;51.740;-1.314;2022-10-22T08:26:19;272;272;
36453;PMS5003;22478;51.740;-1.314;2022-10-22T08:28:46;267;265;
36453;PMS5003;22478;51.740;-1.314;2022-10-22T08:31:13;270;270;
36453;PMS5003;22478;51.740;-1.314;2022-10-22T08:33:40;259;259;
36453;PMS5003;22478;51.740;-1.314;2022-10-22T08:36:08;253;253;
36453;PMS5003;22478;51.740;-1.314;2022-10-22T08:38:35;234;231;
36453;PMS5003;22478;51.740;-1.314;2022-10-22T08:41:05;205;203;
36453;PMS5003;22478;51.740;-1.314;2022-10-22T08:43:37;222;220;
36453;PMS5003;22478;51.740;-1.314;2022-10-22T08:46:18;208;208;
36453;PMS5003;22478;51.740;-1.314;2022-10-22T08:48:57;205;205;
36453;PMS5003;22478;51.740;-1.314;2022-10-22T08:51:28;211;211;
36453;PMS5003;22478;51.740;-1.314;2022-10-22T08:54:05;186;186;
36453;PMS5003;22478;51.740;-1.314;2022-10-22T08:56:41;181;180;
36453;PMS5003;22478;51.740;-1.314;2022-10-22T08:59:12;189;189;
36453;PMS5003;22478;51.740;-1.314;2022-10-22T09:01:44;211;211;
36453;PMS5003;22478;51.740;-1.314;2022-10-22T09:04:14;192;192;
36453;PMS5003;22478;51.740;-1.314;2022-10-22T09:06:44;206;206;
36453;PMS5003;22478;51.740;-1.314;2022-10-22T09:09:12;204;204;
36453;PMS5003;22478;51.740;-1.314;2022-10-22T09:11:45;197;197;
36453;PMS5003;22478;51.740;-1.314;2022-10-22T09:14:15;195;193;
36453;PMS5003;22478;51.740;-1.314;2022-10-22T09:16:50;196;196;
36453;PMS5003;22478;51.740;-1.314;2022-10-22T09:19:39;228;227;
36453;PMS5003;22478;51.740;-1.314;2022-10-22T09:22:16;198;198;
36453;PMS5003;22478;51.740;-1.314;2022-10-22T09:24:54;207;205;
36453;PMS5003;22478;51.740;-1.314;2022-10-22T09:27:26;210;207;
36453;PMS5003;22478;51.740;-1.314;2022-10-22T09:29:55;201;199;
36453;PMS5003;22478;51.740;-1.314;2022-10-22T09:32:22;212;212;
36453;PMS5003;22478;51.740;-1.314;2022-10-22T09:34:53;250;247;
36453;PMS5003;22478;51.740;-1.314;2022-10-22T09:37:24;223;222;
36453;PMS5003;22478;51.740;-1.314;2022-10-22T09:39:54;198;196;
36453;PMS5003;22478;51.740;-1.314;2022-10-22T09:42:23;168;167;
36453;PMS5003;22478;51.740;-1.314;2022-10-22T09:44:51;275;275;
36453;PMS5003;22478;51.740;-1.314;2022-10-22T09:47:28;283;280;
36453;PMS5003;22478;51.740;-1.314;2022-10-22T09:50:04;237;237;
36453;PMS5003;22478;51.740;-1.314;2022-10-22T09:52:42;259;258;
36453;PMS5003;22478;51.740;-1.314;2022-10-22T09:55:12;165;162;
36453;PMS5003;22478;51.740;-1.314;2022-10-22T09:57:40;213;213;
36453;PMS5003;22478;51.740;-1.314;2022-10-22T10:00:08;226;226;
36453;PMS5003;22478;51.740;-1.314;2022-10-22T10:02:39;246;246;
36453;PMS5003;22478;51.740;-1.314;2022-10-22T10:05:07;252;252;
36453;PMS5003;22478;51.740;-1.314;2022-10-22T10:07:43;251;250;
36453;PMS5003;22478;51.740;-1.314;2022-10-22T10:10:15;202;197;
36453;PMS5003;22478;51.740;-1.314;2022-10-22T10:12:47;134;123;
36453;PMS5003;22478;51.740;-1.314;2022-10-22T10:15:23;176;167;
36453;PMS5003;22478;51.740;-1.314;2022-10-22T10:17:55;148;142;
36453;PMS5003;22478;51.740;-1.314;2022-10-22T10:20:34;95;81;
36453;PMS5003;22478;51.740;-1.314;2022-10-22T10:23:07;155;147;
36453;PMS5003;22478;51.740;-1.314;2022-10-22T10:25:47;114;98;
36453;PMS5003;22478;51.740;-1.314;2022-10-22T10:28:23;163;145;
36453;PMS5003;22478;51.740;-1.314;2022-10-22T10:31:03;184;175;
36453;PMS5003;22478;51.740;-1.314;2022-10-22T10:33:45;142;138;
36453;PMS5003;22478;51.740;-1.314;2022-10-22T10:36:26;153;141;
36453;PMS5003;22478;51.740;-1.314;2022-10-22T10:39:02;149;136;
36453;PMS5003;22478;51.740;-1.314;2022-10-22T10:41:38;139;121;
36453;PMS5003;22478;51.740;-1.314;2022-10-22T10:44:35;168;154;
36453;PMS5003;22478;51.740;-1.314;2022-10-22T10:47:12;168;159;
36453;PMS5003;22478;51.740;-1.314;2022-10-22T10:49:50;123;107;
36453;PMS5003;22478;51.740;-1.314;2022-10-22T10:52:26;145;129;
36453;PMS5003;22478;51.740;-1.314;2022-10-22T10:55:02;113;101;
36453;PMS5003;22478;51.740;-1.314;2022-10-22T10:57:42;125;118;
36453;PMS5003;22478;51.740;-1.314;2022-10-22T11:00:21;99;91;
36453;PMS5003;22478;51.740;-1.314;2022-10-22T11:02:58;87;77;
36453;PMS5003;22478;51.740;-1.314;2022-10-22T11:05:40;66;54;
36453;PMS5003;22478;51.740;-1.314;2022-10-22T11:08:12;63;56;
36453;PMS5003;22478;51.740;-1.314;2022-10-22T11:10:44;19;17;
36453;PMS5003;22478;51.740;-1.314;2022-10-22T11:13:17;24;19;
36453;PMS5003;22478;51.740;-1.314;2022-10-22T11:15:51;68;61;
36453;PMS5003;22478;51.740;-1.314;2022-10-22T11:18:23;23;23;
36453;PMS5003;22478;51.740;-1.314;2022-10-22T11:21:00;36;36;
36453;PMS5003;22478;51.740;-1.314;2022-10-22T11:23:37;27;27;
36453;PMS5003;22478;51.740;-1.314;2022-10-22T11:26:10;32;31;
36453;PMS5003;22478;51.740;-1.314;2022-10-22T11:28:52;16;14;
36453;PMS5003;22478;51.740;-1.314;2022-10-22T11:31:22;46;38;
36453;PMS5003;22478;51.740;-1.314;2022-10-22T11:33:50;22;20;
36453;PMS5003;22478;51.740;-1.314;2022-10-22T11:36:21;48;39;
36453;PMS5003;22478;51.740;-1.314;2022-10-22T11:38:50;27;23;
36453;PMS5003;22478;51.740;-1.314;2022-10-22T11:41:22;20;13;
36453;PMS5003;22478;51.740;-1.314;2022-10-22T11:43:56;16;16;
36453;PMS5003;22478;51.740;-1.314;2022-10-22T11:46:37;31;27;
36453;PMS5003;22478;51.740;-1.314;2022-10-22T11:49:17;34;32;
36453;PMS5003;22478;51.740;-1.314;2022-10-22T11:51:49;24;22;
36453;PMS5003;22478;51.740;-1.314;2022-10-22T11:54:27;24;18;
36453;PMS5003;22478;51.740;-1.314;2022-10-22T11:56:58;41;36;
36453;PMS5003;22478;51.740;-1.314;2022-10-22T11:59:46;29;24;
36453;PMS5003;22478;51.740;-1.314;2022-10-22T12:02:28;39;39;
36453;PMS5003;22478;51.740;-1.314;2022-10-22T12:05:36;78;60;
36453;PMS5003;22478;51.740;-1.314;2022-10-22T12:08:15;39;38;
36453;PMS5003;22478;51.740;-1.314;2022-10-22T12:10:49;69;58;
36453;PMS5003;22478;51.740;-1.314;2022-10-22T12:13:24;113;102;
36453;PMS5003;22478;51.740;-1.314;2022-10-22T12:15:54;169;158;
36453;PMS5003;22478;51.740;-1.314;2022-10-22T12:18:25;233;233;
36453;PMS5003;22478;51.740;-1.314;2022-10-22T12:20:56;260;259;
36453;PMS5003;22478;51.740;-1.314;2022-10-22T12:23:27;298;292;
36453;PMS5003;22478;51.740;-1.314;2022-10-22T12:25:57;273;272;
36453;PMS5003;22478;51.740;-1.314;2022-10-22T12:28:23;133;116;
36453;PMS5003;22478;51.740;-1.314;2022-10-22T12:30:51;97;90;
36453;PMS5003;22478;51.740;-1.314;2022-10-22T12:33:19;76;66;
36453;PMS5003;22478;51.740;-1.314;2022-10-22T12:35:48;56;51;
36453;PMS5003;22478;51.740;-1.314;2022-10-22T12:38:17;103;90;
36453;PMS5003;22478;51.740;-1.314;2022-10-22T12:40:46;81;70;
36453;PMS5003;22478;51.740;-1.314;2022-10-22T12:43:15;215;210;
36453;PMS5003;22478;51.740;-1.314;2022-10-22T12:45:45;248;237;
36453;PMS5003;22478;51.740;-1.314;2022-10-22T12:48:16;260;253;
36453;PMS5003;22478;51.740;-1.314;2022-10-22T12:50:47;265;264;
36453;PMS5003;22478;51.740;-1.314;2022-10-22T12:53:17;267;267;
36453;PMS5003;22478;51.740;-1.314;2022-10-22T12:55:49;272;270;
36453;PMS5003;22478;51.740;-1.314;2022-10-22T12:58:19;249;249;
36453;PMS5003;22478;51.740;-1.314;2022-10-22T13:00:52;201;201;
36453;PMS5003;22478;51.740;-1.314;2022-10-22T13:03:24;324;324;
36453;PMS5003;22478;51.740;-1.314;2022-10-22T13:05:54;355;354;
36453;PMS5003;22478;51.740;-1.314;2022-10-22T13:08:22;313;312;
36453;PMS5003;22478;51.740;-1.314;2022-10-22T13:10:53;288;286;
36453;PMS5003;22478;51.740;-1.314;2022-10-22T13:13:29;290;290;
36453;PMS5003;22478;51.740;-1.314;2022-10-22T13:16:11;283;281;
36453;PMS5003;22478;51.740;-1.314;2022-10-22T13:18:40;268;268;
36453;PMS5003;22478;51.740;-1.314;2022-10-22T13:21:19;280;280;
36453;PMS5003;22478;51.740;-1.314;2022-10-22T13:23:51;266;264;
36453;PMS5003;22478;51.740;-1.314;2022-10-22T13:26:20;267;266;
36453;PMS5003;22478;51.740;-1.314;2022-10-22T13:28:49;276;273;
36453;PMS5003;22478;51.740;-1.314;2022-10-22T13:31:18;268;265;
36453;PMS5003;22478;51.740;-1.314;2022-10-22T13:33:50;277;275;
36453;PMS5003;22478;51.740;-1.314;2022-10-22T13:36:20;279;278;
36453;PMS5003;22478;51.740;-1.314;2022-10-22T13:38:49;260;257;
36453;PMS5003;22478;51.740;-1.314;2022-10-22T13:41:18;299;297;
36453;PMS5003;22478;51.740;-1.314;2022-10-22T13:43:46;303;303;
36453;PMS5003;22478;51.740;-1.314;2022-10-22T13:46:13;252;252;
36453;PMS5003;22478;51.740;-1.314;2022-10-22T13:48:42;260;258;
36453;PMS5003;22478;51.740;-1.314;2022-10-22T13:51:12;257;255;
36453;PMS5003;22478;51.740;-1.314;2022-10-22T13:53:41;242;242;
36453;PMS5003;22478;51.740;-1.314;2022-10-22T13:56:12;228;226;
36453;PMS5003;22478;51.740;-1.314;2022-10-22T13:58:41;224;221;
36453;PMS5003;22478;51.740;-1.314;2022-10-22T14:01:11;220;220;
36453;PMS5003;22478;51.740;-1.314;2022-10-22T14:03:44;229;229;
36453;PMS5003;22478;51.740;-1.314;2022-10-22T14:06:13;262;260;
36453;PMS5003;22478;51.740;-1.314;2022-10-22T14:08:42;244;242;
36453;PMS5003;22478;51.740;-1.314;2022-10-22T14:11:11;241;241;
36453;PMS5003;22478;51.740;-1.314;2022-10-22T14:13:39;238;238;
36453;PMS5003;22478;51.740;-1.314;2022-10-22T14:16:10;291;291;
36453;PMS5003;22478;51.740;-1.314;2022-10-22T14:18:42;243;241;
36453;PMS5003;22478;51.740;-1.314;2022-10-22T14:21:10;270;267;
36453;PMS5003;22478;51.740;-1.314;2022-10-22T14:23:39;206;206;
36453;PMS5003;22478;51.740;-1.314;2022-10-22T14:26:11;215;214;
36453;PMS5003;22478;51.740;-1.314;2022-10-22T14:28:47;205;205;
36453;PMS5003;22478;51.740;-1.314;2022-10-22T14:31:15;218;218;
36453;PMS5003;22478;51.740;-1.314;2022-10-22T14:33:42;207;206;
36453;PMS5003;22478;51.740;-1.314;2022-10-22T14:36:11;210;210;
36453;PMS5003;22478;51.740;-1.314;2022-10-22T14:38:39;266;265;
36453;PMS5003;22478;51.740;-1.314;2022-10-22T14:41:09;266;266;
36453;PMS5003;22478;51.740;-1.314;2022-10-22T14:43:44;222;222;
36453;PMS5003;22478;51.740;-1.314;2022-10-22T14:46:11;214;214;
36453;PMS5003;22478;51.740;-1.314;2022-10-22T14:48:40;219;219;
36453;PMS5003;22478;51.740;-1.314;2022-10-22T14:51:09;246;246;
36453;PMS5003;22478;51.740;-1.314;2022-10-22T14:53:38;275;275;
36453;PMS5003;22478;51.740;-1.314;2022-10-22T14:56:05;248;248;
36453;PMS5003;22478;51.740;-1.314;2022-10-22T14:58:35;284;284;
36453;PMS5003;22478;51.740;-1.314;2022-10-22T15:01:02;308;308;
36453;PMS5003;22478;51.740;-1.314;2022-10-22T15:03:30;291;286;
36453;PMS5003;22478;51.740;-1.314;2022-10-22T15:05:57;325;325;
36453;PMS5003;22478;51.740;-1.314;2022-10-22T15:08:25;335;333;
36453;PMS5003;22478;51.740;-1.314;2022-10-22T15:10:56;305;305;
36453;PMS5003;22478;51.740;-1.314;2022-10-22T15:13:24;277;277;
36453;PMS5003;22478;51.740;-1.314;2022-10-22T15:15:52;328;328;
36453;PMS5003;22478;51.740;-1.314;2022-10-22T15:18:19;363;360;
36453;PMS5003;22478;51.740;-1.314;2022-10-22T15:20:53;327;327;
36453;PMS5003;22478;51.740;-1.314;2022-10-22T15:23:21;321;321;
36453;PMS5003;22478;51.740;-1.314;2022-10-22T15:25:48;299;297;
36453;PMS5003;22478;51.740;-1.314;2022-10-22T15:28:16;208;207;
36453;PMS5003;22478;51.740;-1.314;2022-10-22T15:30:43;192;190;
36453;PMS5003;22478;51.740;-1.314;2022-10-22T15:33:11;149;149;
36453;PMS5003;22478;51.740;-1.314;2022-10-22T15:35:38;227;224;
36453;PMS5003;22478;51.740;-1.314;2022-10-22T15:38:06;240;240;
36453;PMS5003;22478;51.740;-1.314;2022-10-22T15:40:33;180;178;
36453;PMS5003;22478;51.740;-1.314;2022-10-22T15:43:00;186;186;
36453;PMS5003;22478;51.740;-1.314;2022-10-22T15:45:28;207;207;
36453;PMS5003;22478;51.740;-1.314;2022-10-22T15:47:55;284;280;
36453;PMS5003;22478;51.740;-1.314;2022-10-22T15:50:22;295;291;
36453;PMS5003;22478;51.740;-1.314;2022-10-22T15:52:50;192;192;
36453;PMS5003;22478;51.740;-1.314;2022-10-22T15:55:17;273;273;